Time;durP1;ratioP1;P1;durP2;ratioP2;P2;SDS_P1;SDS_P2;PMS_P1;PMS_P2;Temp;Humidity;BMP_temperature;BMP_pressure;BME280_temperature;BME280_humidity;BME280_pressure;Samples;Min_cycle;Max_cycle;Signal;HPM_P1;HPM_P2
2022/02/25 00:01:14;;;;;;;3.53;1.20;;;3.40;99.90;;;;;;5020152;28;20211;-78
2022/02/25 00:03:39;;;;;;;2.67;1.33;;;3.50;99.90;;;;;;5005622;28;20208;-79
2022/02/25 00:06:05;;;;;;;4.17;1.60;;;3.50;99.90;;;;;;5004573;28;20183;-79
2022/02/25 00:08:33;;;;;;;2.63;1.40;;;3.50;99.90;;;;;;5005326;28;20574;-79
2022/02/25 00:10:58;;;;;;;2.33;1.63;;;3.50;99.90;;;;;;5004914;28;20361;-80
2022/02/25 00:13:24;;;;;;;3.50;2.03;;;3.50;99.90;;;;;;5019427;28;20203;-78
2022/02/25 00:15:49;;;;;;;1.97;1.53;;;3.50;99.90;;;;;;5004829;28;20563;-79
2022/02/25 00:18:15;;;;;;;1.60;1.50;;;3.40;99.90;;;;;;5006178;28;20182;-78
2022/02/25 00:20:41;;;;;;;4.57;1.53;;;3.40;99.90;;;;;;5005699;28;20216;-78
2022/02/25 00:23:06;;;;;;;2.80;1.70;;;3.40;99.90;;;;;;5005747;28;20191;-78
2022/02/25 00:25:32;;;;;;;2.30;1.43;;;3.40;99.90;;;;;;5003457;28;20278;-79
2022/02/25 00:27:57;;;;;;;3.67;1.60;;;3.40;99.90;;;;;;5004595;28;20192;-79
2022/02/25 00:30:23;;;;;;;3.80;2.03;;;3.50;99.90;;;;;;5003263;28;20643;-78
2022/02/25 00:32:49;;;;;;;2.53;1.30;;;3.50;99.90;;;;;;5005122;28;20198;-77
2022/02/25 00:35:14;;;;;;;1.80;1.50;;;3.50;99.90;;;;;;5005253;28;20183;-79
2022/02/25 00:37:40;;;;;;;3.43;2.17;;;3.50;99.90;;;;;;5005910;28;20963;-78
2022/02/25 00:40:06;;;;;;;2.17;1.83;;;3.40;99.90;;;;;;5003621;28;20208;-78
2022/02/25 00:42:32;;;;;;;2.70;1.50;;;3.40;99.90;;;;;;5004357;28;20191;-78
2022/02/25 00:44:58;;;;;;;1.60;1.50;;;3.30;99.90;;;;;;5004608;28;20172;-77
2022/02/25 00:47:24;;;;;;;2.80;1.50;;;3.20;99.90;;;;;;5004000;28;20266;-78
2022/02/25 00:49:50;;;;;;;6.07;1.70;;;3.20;99.90;;;;;;5002958;28;20207;-79
2022/02/25 00:52:16;;;;;;;4.13;1.60;;;3.10;99.90;;;;;;5002883;28;20180;-78
2022/02/25 00:54:44;;;;;;;2.67;1.67;;;3.10;99.90;;;;;;5001746;28;20183;-78
2022/02/25 00:57:09;;;;;;;2.40;1.80;;;3.00;99.90;;;;;;5002611;28;20168;-78
2022/02/25 00:59:35;;;;;;;3.60;1.50;;;3.10;99.90;;;;;;5003368;28;20214;-77
2022/02/25 01:02:00;;;;;;;2.50;1.40;;;3.10;99.90;;;;;;4999919;28;20578;-78
2022/02/25 01:04:26;;;;;;;3.73;1.53;;;3.00;99.90;;;;;;5014365;28;20197;-77
2022/02/25 01:06:52;;;;;;;3.33;1.60;;;3.00;99.90;;;;;;5010437;28;20223;-78
2022/02/25 01:09:17;;;;;;;2.77;1.50;;;3.00;99.90;;;;;;5021895;28;20208;-78
2022/02/25 01:11:43;;;;;;;9.93;2.57;;;3.00;99.90;;;;;;5018670;28;20194;-77
2022/02/25 01:14:09;;;;;;;4.70;1.80;;;2.90;99.90;;;;;;5011514;28;20223;-79
2022/02/25 01:16:34;;;;;;;3.77;1.57;;;2.90;99.90;;;;;;5007082;28;20188;-79
2022/02/25 01:19:00;;;;;;;1.40;1.30;;;3.00;99.90;;;;;;5007864;28;20223;-79
2022/02/25 01:21:26;;;;;;;2.60;1.60;;;3.10;99.90;;;;;;5020701;28;20219;-79
2022/02/25 01:23:52;;;;;;;3.67;1.30;;;3.10;99.90;;;;;;5004607;28;20194;-79
2022/02/25 01:26:17;;;;;;;2.90;1.27;;;3.10;99.90;;;;;;5005084;28;20188;-78
2022/02/25 01:28:43;;;;;;;1.20;1.10;;;3.10;99.90;;;;;;5003095;28;20242;-79
2022/02/25 01:31:09;;;;;;;3.70;1.40;;;3.00;99.90;;;;;;5002245;28;20564;-79
2022/02/25 01:33:35;;;;;;;3.87;1.60;;;3.10;99.90;;;;;;5002686;28;20183;-79
2022/02/25 01:36:00;;;;;;;2.73;1.50;;;3.10;99.90;;;;;;5000922;28;20194;-79
2022/02/25 01:38:27;;;;;;;3.80;1.40;;;3.00;99.90;;;;;;5002597;28;20211;-77
2022/02/25 01:40:54;;;;;;;3.73;1.60;;;2.90;99.90;;;;;;5004882;28;20589;-79
2022/02/25 01:43:23;;;;;;;2.60;1.30;;;2.90;99.90;;;;;;5003482;28;20251;-79
2022/02/25 01:45:49;;;;;;;3.40;1.37;;;2.80;99.90;;;;;;5002289;28;20199;-79
2022/02/25 01:48:15;;;;;;;2.70;1.13;;;2.90;99.90;;;;;;5004097;28;20192;-79
2022/02/25 01:50:42;;;;;;;1.73;1.30;;;2.80;99.90;;;;;;5003630;28;20212;-79
2022/02/25 01:53:09;;;;;;;3.40;1.30;;;2.80;99.90;;;;;;5017669;28;20180;-79
2022/02/25 01:55:37;;;;;;;4.23;1.43;;;2.90;99.90;;;;;;5004593;28;20614;-79
2022/02/25 01:58:04;;;;;;;2.87;1.30;;;3.00;99.90;;;;;;5003646;28;20303;-79
2022/02/25 02:00:30;;;;;;;2.83;1.57;;;3.00;99.90;;;;;;5004637;28;20203;-79
2022/02/25 02:02:55;;;;;;;3.17;1.30;;;2.90;99.90;;;;;;5002661;28;20341;-79
2022/02/25 02:05:22;;;;;;;3.00;1.40;;;3.00;99.90;;;;;;5004150;28;20184;-79
2022/02/25 02:07:48;;;;;;;2.43;1.30;;;2.90;99.90;;;;;;5001804;28;20251;-79
2022/02/25 02:10:14;;;;;;;2.80;1.20;;;2.90;99.90;;;;;;5003172;28;20243;-79
2022/02/25 02:12:40;;;;;;;2.13;1.20;;;2.90;99.90;;;;;;5004234;28;20189;-79
2022/02/25 02:15:06;;;;;;;2.33;1.30;;;2.90;99.90;;;;;;5003393;28;20190;-79
2022/02/25 02:17:32;;;;;;;2.90;1.30;;;2.90;99.90;;;;;;5001883;28;20266;-79
2022/02/25 02:20:00;;;;;;;2.80;1.07;;;2.90;99.90;;;;;;5017959;28;20206;-79
2022/02/25 02:22:30;;;;;;;1.77;1.40;;;2.90;99.90;;;;;;5002720;28;20586;-79
2022/02/25 02:24:56;;;;;;;4.90;1.77;;;2.90;99.90;;;;;;5016857;28;20188;-78
2022/02/25 02:27:22;;;;;;;3.70;1.50;;;2.90;99.90;;;;;;5000875;28;20183;-77
2022/02/25 02:29:47;;;;;;;2.53;1.40;;;3.00;99.90;;;;;;5001353;28;20750;-78
2022/02/25 02:32:13;;;;;;;4.60;1.83;;;3.10;99.90;;;;;;5001510;28;20203;-79
2022/02/25 02:34:40;;;;;;;2.10;1.77;;;3.20;99.90;;;;;;5003569;28;20176;-79
2022/02/25 02:37:10;;;;;;;2.83;1.57;;;3.30;99.90;;;;;;5001984;28;20264;-79
2022/02/25 02:39:36;;;;;;;2.30;1.90;;;3.30;99.90;;;;;;5004279;28;20235;-79
2022/02/25 02:42:04;;;;;;;4.10;1.50;;;3.30;99.90;;;;;;5017474;28;20270;-78
2022/02/25 02:44:29;;;;;;;2.97;1.50;;;3.30;99.90;;;;;;5019680;28;20247;-78
2022/02/25 02:46:55;;;;;;;2.70;1.40;;;3.20;99.90;;;;;;5000653;28;20721;-79
2022/02/25 02:49:20;;;;;;;4.27;1.43;;;3.20;99.90;;;;;;5001662;28;20235;-79
2022/02/25 02:51:47;;;;;;;2.00;1.30;;;3.10;99.90;;;;;;5002745;28;20234;-79
2022/02/25 02:54:13;;;;;;;4.63;1.43;;;3.00;99.90;;;;;;5017018;28;20616;-78
2022/02/25 02:56:38;;;;;;;5.93;2.20;;;3.00;99.90;;;;;;5000154;28;20278;-79
2022/02/25 02:59:04;;;;;;;3.20;1.80;;;3.00;99.90;;;;;;5016238;28;20183;-79
2022/02/25 03:01:31;;;;;;;2.37;1.67;;;3.00;99.90;;;;;;5003886;28;20183;-79
2022/02/25 03:04:00;;;;;;;3.73;1.80;;;2.90;99.90;;;;;;5002400;28;20255;-79
2022/02/25 03:06:28;;;;;;;2.30;1.80;;;2.80;99.90;;;;;;5017813;28;20184;-78
2022/02/25 03:08:54;;;;;;;5.53;1.90;;;2.80;99.90;;;;;;5000027;28;20275;-77
2022/02/25 03:11:21;;;;;;;4.50;1.50;;;2.80;99.90;;;;;;5015202;28;20646;-78
2022/02/25 03:13:47;;;;;;;3.90;1.60;;;2.80;99.90;;;;;;4998988;28;20261;-78
2022/02/25 03:16:12;;;;;;;3.30;1.60;;;2.70;99.90;;;;;;5015946;28;20183;-80
2022/02/25 03:18:38;;;;;;;2.23;1.43;;;2.70;99.90;;;;;;5017077;28;20190;-80
2022/02/25 03:21:05;;;;;;;2.60;1.63;;;2.60;99.90;;;;;;5000840;28;20276;-80
2022/02/25 03:23:30;;;;;;;2.80;1.40;;;2.60;99.90;;;;;;5002902;28;20187;-79
2022/02/25 03:25:56;;;;;;;4.90;1.40;;;2.60;99.90;;;;;;5000951;28;20202;-80
2022/02/25 03:28:21;;;;;;;3.47;1.63;;;2.60;99.90;;;;;;5000347;28;20601;-80
2022/02/25 03:30:47;;;;;;;4.33;1.80;;;2.60;99.90;;;;;;5002397;28;20211;-80
2022/02/25 03:33:13;;;;;;;5.20;1.67;;;2.60;99.90;;;;;;5002942;28;21857;-81
2022/02/25 03:35:39;;;;;;;1.70;1.60;;;2.60;99.90;;;;;;4999675;28;20187;-79
2022/02/25 03:38:04;;;;;;;2.37;1.60;;;2.50;99.90;;;;;;5000331;28;20613;-80
2022/02/25 03:40:30;;;;;;;1.97;1.80;;;2.50;99.90;;;;;;5016716;28;20261;-78
2022/02/25 03:42:56;;;;;;;3.00;1.60;;;2.40;99.90;;;;;;5015771;28;20176;-77
2022/02/25 03:45:22;;;;;;;1.87;1.47;;;2.40;99.90;;;;;;5000211;28;20187;-79
2022/02/25 03:47:48;;;;;;;2.30;1.50;;;2.40;99.90;;;;;;5003540;28;20250;-79
2022/02/25 03:50:14;;;;;;;5.80;2.20;;;2.40;99.90;;;;;;5002839;28;20281;-79
2022/02/25 03:52:39;;;;;;;2.80;1.83;;;2.30;99.90;;;;;;5002328;28;20266;-79
2022/02/25 03:55:06;;;;;;;3.37;1.80;;;2.20;99.90;;;;;;5017610;28;20187;-78
2022/02/25 03:57:32;;;;;;;4.43;1.90;;;2.20;99.90;;;;;;5007681;28;20389;-79
2022/02/25 03:59:58;;;;;;;3.43;2.03;;;2.20;99.90;;;;;;5003845;28;20674;-79
2022/02/25 04:02:23;;;;;;;2.63;1.70;;;2.20;99.90;;;;;;5017617;28;20210;-79
2022/02/25 04:04:50;;;;;;;3.57;2.03;;;2.20;99.90;;;;;;5000662;28;20662;-79
2022/02/25 04:07:16;;;;;;;3.97;2.10;;;2.20;99.90;;;;;;5001639;28;20193;-79
2022/02/25 04:09:42;;;;;;;7.30;2.10;;;2.20;99.90;;;;;;4999136;28;21128;-78
2022/02/25 04:12:08;;;;;;;1.50;1.40;;;2.20;99.90;;;;;;5002365;28;20267;-79
2022/02/25 04:14:36;;;;;;;4.03;2.00;;;2.20;99.90;;;;;;5013905;28;20287;-79
2022/02/25 04:17:01;;;;;;;2.00;1.80;;;2.20;99.90;;;;;;4999327;28;20210;-77
2022/02/25 04:19:27;;;;;;;3.17;1.93;;;2.20;99.90;;;;;;5014761;28;20789;-78
2022/02/25 04:21:53;;;;;;;6.50;2.00;;;2.20;99.90;;;;;;5000945;28;20291;-79
2022/02/25 04:24:18;;;;;;;3.63;1.50;;;2.30;99.90;;;;;;5016984;28;20187;-78
2022/02/25 04:26:44;;;;;;;4.47;1.70;;;2.30;99.90;;;;;;5002108;28;20196;-79
2022/02/25 04:29:10;;;;;;;3.77;1.90;;;2.40;99.90;;;;;;4998806;28;20224;-79
2022/02/25 04:31:36;;;;;;;2.40;1.73;;;2.40;99.90;;;;;;5000135;28;20223;-78
2022/02/25 04:34:01;;;;;;;2.77;1.60;;;2.40;99.90;;;;;;5002817;28;20638;-79
2022/02/25 04:36:27;;;;;;;4.30;1.50;;;2.40;99.90;;;;;;5008002;28;20654;-79
2022/02/25 04:38:53;;;;;;;4.80;1.60;;;2.50;99.90;;;;;;4999861;28;20257;-79
2022/02/25 04:41:20;;;;;;;2.93;1.70;;;2.50;99.90;;;;;;5005603;28;20196;-78
2022/02/25 04:43:46;;;;;;;4.60;1.80;;;2.60;99.90;;;;;;5019721;28;20188;-79
2022/02/25 04:46:21;;;;;;;3.33;1.70;;;2.60;99.90;;;;;;5003390;28;20182;-78
2022/02/25 04:48:47;;;;;;;4.20;1.83;;;2.60;99.90;;;;;;5004925;28;20187;-79
2022/02/25 04:51:16;;;;;;;2.80;1.60;;;2.60;99.90;;;;;;5019675;28;20259;-79
2022/02/25 04:53:46;;;;;;;1.87;1.20;;;2.60;99.90;;;;;;5004643;28;20172;-79
2022/02/25 04:56:12;;;;;;;2.83;1.60;;;2.70;99.90;;;;;;5004148;28;20883;-79
2022/02/25 04:58:38;;;;;;;4.03;1.90;;;2.60;99.90;;;;;;5020544;28;20200;-78
2022/02/25 05:01:05;;;;;;;2.77;1.63;;;2.60;99.90;;;;;;5001968;28;20206;-79
2022/02/25 05:03:34;;;;;;;2.07;1.80;;;2.60;99.90;;;;;;5002123;28;20326;-80
2022/02/25 05:06:00;;;;;;;2.73;1.63;;;2.60;99.90;;;;;;5001143;28;20718;-79
2022/02/25 05:08:26;;;;;;;3.00;1.30;;;2.60;99.90;;;;;;5000305;28;20180;-78
2022/02/25 05:10:52;;;;;;;2.37;1.43;;;2.70;99.90;;;;;;5002644;28;20233;-78
2022/02/25 05:13:18;;;;;;;3.30;1.73;;;2.70;99.90;;;;;;5002802;28;20698;-78
2022/02/25 05:21:13;;;;;;;3.17;1.87;;;2.80;99.90;;;;;;5002990;28;20223;-79
2022/02/25 05:23:39;;;;;;;2.60;1.30;;;2.90;99.90;;;;;;4999860;28;20793;-79
2022/02/25 05:26:04;;;;;;;2.40;1.80;;;2.90;99.90;;;;;;4999032;28;20271;-77
2022/02/25 05:28:30;;;;;;;2.77;1.50;;;2.90;99.90;;;;;;4997515;28;20225;-77
2022/02/25 05:30:56;;;;;;;2.80;1.47;;;2.90;99.90;;;;;;4995714;28;20294;-77
2022/02/25 05:33:21;;;;;;;4.20;1.93;;;2.90;99.90;;;;;;5002845;28;20179;-78
2022/02/25 05:35:47;;;;;;;2.90;1.40;;;3.00;99.90;;;;;;5018837;28;20466;-79
2022/02/25 05:38:13;;;;;;;1.70;1.50;;;2.90;99.90;;;;;;5002460;28;20233;-79
2022/02/25 05:40:40;;;;;;;2.70;1.60;;;2.90;99.90;;;;;;5002653;28;20948;-79
2022/02/25 05:43:06;;;;;;;3.97;1.70;;;2.90;99.90;;;;;;5018900;28;20187;-78
2022/02/25 05:45:32;;;;;;;3.30;1.53;;;2.90;99.90;;;;;;5002716;28;20195;-79
2022/02/25 05:47:57;;;;;;;2.00;1.27;;;2.80;99.90;;;;;;5001855;28;20240;-78
2022/02/25 05:50:24;;;;;;;5.53;1.80;;;2.70;99.90;;;;;;5000755;28;20589;-79
2022/02/25 05:52:50;;;;;;;3.67;1.27;;;2.70;99.90;;;;;;5001930;28;20286;-78
2022/02/25 05:55:17;;;;;;;2.67;1.40;;;2.60;99.90;;;;;;5018697;28;20223;-79
2022/02/25 05:57:43;;;;;;;4.77;1.50;;;2.60;99.90;;;;;;5004616;28;20188;-78
2022/02/25 06:00:10;;;;;;;3.53;2.10;;;2.50;99.90;;;;;;5003785;28;20199;-78
2022/02/25 06:02:36;;;;;;;3.63;1.73;;;2.40;99.90;;;;;;5015587;28;20200;-78
2022/02/25 06:05:02;;;;;;;2.63;1.20;;;2.30;99.90;;;;;;4999522;28;20184;-78
2022/02/25 06:07:28;;;;;;;2.17;1.20;;;2.30;99.90;;;;;;5006096;28;20203;-78
2022/02/25 06:09:54;;;;;;;2.10;1.23;;;2.40;99.90;;;;;;4997086;28;20200;-78
2022/02/25 06:12:20;;;;;;;2.87;1.40;;;2.30;99.90;;;;;;4999053;28;20179;-78
2022/02/25 06:14:45;;;;;;;4.57;1.23;;;2.30;99.90;;;;;;4997847;28;20180;-78
2022/02/25 06:17:11;;;;;;;2.93;1.60;;;2.30;99.90;;;;;;4999720;28;20188;-78
2022/02/25 06:19:36;;;;;;;2.70;1.20;;;2.30;99.90;;;;;;4997661;28;20242;-78
2022/02/25 06:22:02;;;;;;;4.10;1.40;;;2.30;99.90;;;;;;4999232;28;20238;-77
2022/02/25 06:24:28;;;;;;;4.40;1.30;;;2.30;99.90;;;;;;4996577;28;20180;-80
2022/02/25 06:26:54;;;;;;;4.63;1.40;;;2.20;99.90;;;;;;4993605;28;20527;-77
2022/02/25 06:29:19;;;;;;;4.23;1.27;;;2.20;99.90;;;;;;4992131;28;20212;-79
2022/02/25 06:31:45;;;;;;;4.57;1.57;;;2.20;99.90;;;;;;4994374;28;20219;-79
2022/02/25 06:34:10;;;;;;;2.43;1.40;;;2.20;99.90;;;;;;4992535;28;20180;-78
2022/02/25 06:36:36;;;;;;;2.03;1.13;;;2.20;99.90;;;;;;4994383;28;20318;-79
2022/02/25 06:39:02;;;;;;;3.60;1.13;;;2.20;99.90;;;;;;4989421;28;20188;-79
2022/02/25 06:41:28;;;;;;;2.80;1.10;;;2.20;99.90;;;;;;4994760;28;20601;-78
2022/02/25 06:43:55;;;;;;;6.20;2.03;;;2.20;99.90;;;;;;4987808;28;20215;-78
2022/02/25 06:46:20;;;;;;;2.20;1.43;;;2.10;99.90;;;;;;5012963;28;20194;-78
2022/02/25 06:48:46;;;;;;;4.63;1.00;;;2.20;99.90;;;;;;4992358;28;20641;-78
2022/02/25 06:51:13;;;;;;;1.87;1.17;;;2.30;99.90;;;;;;4997770;28;20219;-78
2022/02/25 06:53:38;;;;;;;4.40;1.20;;;2.20;99.90;;;;;;4994846;28;20188;-80
2022/02/25 06:56:04;;;;;;;4.57;1.30;;;2.20;99.90;;;;;;4988715;28;20196;-79
2022/02/25 06:58:31;;;;;;;1.43;0.90;;;2.30;99.90;;;;;;4986456;28;20196;-78
2022/02/25 07:00:56;;;;;;;5.17;1.27;;;2.40;99.90;;;;;;4992650;28;20522;-79
2022/02/25 07:03:22;;;;;;;3.67;1.30;;;2.40;99.90;;;;;;4992663;28;20204;-78
2022/02/25 07:05:48;;;;;;;3.70;1.27;;;2.40;99.90;;;;;;5012075;28;20191;-79
2022/02/25 07:08:14;;;;;;;6.20;1.30;;;2.50;99.90;;;;;;4996179;28;20212;-78
2022/02/25 07:10:41;;;;;;;2.30;1.40;;;2.60;99.90;;;;;;4991991;28;20215;-79
2022/02/25 07:13:08;;;;;;;4.27;1.10;;;2.50;99.90;;;;;;4994329;28;20177;-78
2022/02/25 07:15:35;;;;;;;2.97;1.20;;;2.60;99.90;;;;;;4995192;28;20263;-79
2022/02/25 07:18:01;;;;;;;2.87;1.30;;;2.70;99.90;;;;;;4997203;28;20191;-78
2022/02/25 07:20:27;;;;;;;4.27;1.10;;;2.70;99.90;;;;;;4996779;28;20203;-79
2022/02/25 07:22:53;;;;;;;4.53;1.10;;;2.70;99.90;;;;;;4997374;28;20195;-79
2022/02/25 07:25:19;;;;;;;6.97;1.23;;;2.80;99.90;;;;;;5013307;28;20436;-78
2022/02/25 07:27:45;;;;;;;4.60;1.17;;;2.90;99.90;;;;;;5001604;28;20191;-78
2022/02/25 07:30:12;;;;;;;1.60;0.80;;;2.90;99.90;;;;;;5000836;28;20658;-79
2022/02/25 07:32:37;;;;;;;3.63;0.97;;;3.00;99.90;;;;;;5002331;28;20192;-78
2022/02/25 07:35:06;;;;;;;3.97;1.20;;;3.00;99.90;;;;;;5003005;28;20201;-77
2022/02/25 07:37:31;;;;;;;6.33;1.40;;;3.00;99.90;;;;;;4992739;28;20601;-79
2022/02/25 07:39:57;;;;;;;3.23;0.90;;;3.20;99.90;;;;;;4993190;28;20587;-79
2022/02/25 07:42:24;;;;;;;4.43;1.97;;;3.20;99.90;;;;;;4987809;28;20672;-78
2022/02/25 07:44:49;;;;;;;4.13;1.37;;;3.30;99.90;;;;;;4986121;28;20188;-81
2022/02/25 07:47:17;;;;;;;2.03;1.13;;;3.40;99.90;;;;;;5002062;28;20195;-79
2022/02/25 07:49:45;;;;;;;4.83;1.47;;;3.40;99.90;;;;;;4991472;28;20219;-79
2022/02/25 07:52:10;;;;;;;4.37;1.50;;;3.50;99.90;;;;;;4995637;28;20199;-78
2022/02/25 07:54:36;;;;;;;1.90;1.23;;;3.50;99.90;;;;;;5010926;28;20219;-79
2022/02/25 07:57:02;;;;;;;3.20;1.20;;;3.60;99.90;;;;;;5006038;28;20189;-78
2022/02/25 07:59:27;;;;;;;1.80;1.30;;;3.60;99.90;;;;;;5007238;28;20207;-79
2022/02/25 08:01:53;;;;;;;2.07;1.00;;;3.70;99.90;;;;;;4996065;28;20204;-80
2022/02/25 08:04:19;;;;;;;4.30;1.17;;;3.80;99.90;;;;;;4998906;28;20180;-78
2022/02/25 08:06:45;;;;;;;5.03;1.40;;;3.80;99.90;;;;;;4997289;28;20192;-79
2022/02/25 08:09:11;;;;;;;4.63;1.70;;;3.90;99.90;;;;;;4996374;28;20215;-77
2022/02/25 08:11:38;;;;;;;3.00;1.27;;;4.00;99.90;;;;;;5003295;28;20255;-78
2022/02/25 08:14:04;;;;;;;2.53;1.33;;;4.00;99.90;;;;;;4994292;28;20211;-80
2022/02/25 08:16:31;;;;;;;3.80;1.27;;;4.00;99.90;;;;;;4999517;28;20186;-77
2022/02/25 08:18:56;;;;;;;2.77;1.80;;;4.10;99.90;;;;;;5006764;28;20180;-77
2022/02/25 08:21:22;;;;;;;2.63;1.10;;;4.20;99.90;;;;;;5016286;28;20223;-78
2022/02/25 08:23:48;;;;;;;1.10;0.97;;;4.30;99.90;;;;;;5015444;28;20234;-80
2022/02/25 08:26:13;;;;;;;5.23;1.50;;;4.40;99.90;;;;;;4999451;28;20192;-78
2022/02/25 08:28:40;;;;;;;3.63;1.40;;;4.40;99.90;;;;;;4998340;28;20275;-78
2022/02/25 08:31:11;;;;;;;2.10;1.30;;;4.50;99.90;;;;;;5006773;28;20218;-80
2022/02/25 08:33:37;;;;;;;2.80;1.10;;;4.60;99.90;;;;;;5000157;28;20190;-80
2022/02/25 08:36:03;;;;;;;6.83;1.30;;;4.50;99.90;;;;;;5016245;28;20239;-78
2022/02/25 08:38:29;;;;;;;2.97;1.13;;;4.60;99.90;;;;;;4998605;28;20183;-80
2022/02/25 08:40:54;;;;;;;1.80;1.00;;;4.70;99.90;;;;;;5000474;28;20219;-77
2022/02/25 08:43:20;;;;;;;2.27;1.20;;;4.80;99.90;;;;;;5000081;28;20195;-81
2022/02/25 08:45:46;;;;;;;3.00;1.10;;;4.90;99.90;;;;;;4999057;28;20184;-77
2022/02/25 08:48:12;;;;;;;3.10;0.93;;;4.90;99.90;;;;;;4995805;28;20665;-78
2022/02/25 08:50:38;;;;;;;2.07;1.00;;;4.90;99.90;;;;;;4996711;28;21126;-78
2022/02/25 08:53:03;;;;;;;3.90;1.20;;;4.80;99.90;;;;;;4999472;28;20188;-80
2022/02/25 08:55:29;;;;;;;2.37;1.23;;;4.60;99.90;;;;;;5013717;28;21231;-79
2022/02/25 08:57:55;;;;;;;3.40;1.50;;;4.60;99.90;;;;;;4997816;28;20196;-79
2022/02/25 09:00:23;;;;;;;4.67;1.50;;;4.70;99.90;;;;;;4998322;28;20212;-78
2022/02/25 09:02:49;;;;;;;3.27;1.00;;;4.90;99.90;;;;;;5000701;28;20657;-79
2022/02/25 09:05:16;;;;;;;4.27;1.60;;;4.90;99.90;;;;;;4992794;28;20263;-79
2022/02/25 09:07:42;;;;;;;3.33;0.90;;;5.00;99.90;;;;;;4996176;28;20293;-79
2022/02/25 09:10:08;;;;;;;3.33;1.27;;;5.10;99.90;;;;;;5000577;28;20302;-79
2022/02/25 09:12:36;;;;;;;2.40;1.10;;;5.30;99.90;;;;;;5000366;28;20188;-79
2022/02/25 09:15:04;;;;;;;4.30;1.40;;;5.20;99.90;;;;;;4996965;28;20573;-79
2022/02/25 09:17:30;;;;;;;1.73;1.10;;;5.30;99.90;;;;;;4998227;28;20517;-77
2022/02/25 09:19:56;;;;;;;3.20;1.10;;;5.30;99.90;;;;;;5009782;28;20262;-78
2022/02/25 09:22:22;;;;;;;3.10;1.03;;;5.30;99.90;;;;;;4995250;28;20195;-79
2022/02/25 09:24:48;;;;;;;2.87;1.13;;;5.30;99.90;;;;;;5011287;28;20192;-78
2022/02/25 09:27:14;;;;;;;2.20;1.27;;;5.40;99.90;;;;;;4993373;28;20191;-78
2022/02/25 09:29:40;;;;;;;4.70;1.50;;;5.30;99.90;;;;;;5006697;28;20818;-77
2022/02/25 09:32:07;;;;;;;3.50;1.00;;;5.40;99.90;;;;;;4990749;28;20188;-77
2022/02/25 09:34:34;;;;;;;3.13;1.20;;;5.60;99.90;;;;;;4994272;28;20187;-80
2022/02/25 09:36:59;;;;;;;7.63;1.40;;;5.50;99.90;;;;;;5011274;28;20183;-79
2022/02/25 09:39:25;;;;;;;2.93;1.27;;;5.60;99.90;;;;;;5003961;28;20200;-79
2022/02/25 09:41:51;;;;;;;4.13;1.23;;;5.60;99.90;;;;;;4995461;28;20674;-79
2022/02/25 09:44:16;;;;;;;3.57;1.13;;;5.60;99.90;;;;;;4997851;28;20271;-77
2022/02/25 09:46:46;;;;;;;3.90;2.07;;;5.80;99.90;;;;;;5007781;28;20217;-79
2022/02/25 09:49:13;;;;;;;3.17;1.30;;;5.90;99.90;;;;;;4998009;28;20599;-77
2022/02/25 09:51:39;;;;;;;2.63;1.13;;;5.90;99.90;;;;;;5007140;28;20672;-77
2022/02/25 09:54:06;;;;;;;2.47;1.10;;;6.00;99.90;;;;;;5006336;28;20492;-79
2022/02/25 09:56:33;;;;;;;2.97;1.07;;;6.10;99.90;;;;;;4993269;28;20937;-79
2022/02/25 09:59:00;;;;;;;3.17;1.13;;;6.20;99.90;;;;;;4997941;28;20184;-79
2022/02/25 10:01:36;;;;;;;3.07;1.00;;;6.40;99.90;;;;;;5010660;28;20183;-79
2022/02/25 10:04:12;;;;;;;3.53;1.03;;;6.30;99.90;;;;;;4993583;28;20192;-80
2022/02/25 10:06:38;;;;;;;5.20;1.43;;;6.20;99.90;;;;;;5006299;28;20250;-79
2022/02/25 10:09:25;;;;;;;4.50;1.17;;;6.10;99.90;;;;;;4993493;28;20451;-78
2022/02/25 10:12:09;;;;;;;4.00;1.30;;;5.90;99.90;;;;;;4997609;28;20273;-77
2022/02/25 10:14:43;;;;;;;2.43;1.03;;;5.60;99.90;;;;;;4999487;28;20176;-78
2022/02/25 10:17:12;;;;;;;7.03;1.20;;;5.70;99.90;;;;;;5006506;28;20176;-78
2022/02/25 10:19:39;;;;;;;4.90;1.40;;;5.70;99.90;;;;;;4999659;28;21106;-77
2022/02/25 10:22:25;;;;;;;5.07;1.50;;;5.80;99.90;;;;;;4995118;28;20176;-78
2022/02/25 10:24:58;;;;;;;3.73;1.53;;;5.70;99.90;;;;;;4998590;28;20267;-78
2022/02/25 10:27:29;;;;;;;3.93;1.20;;;5.70;99.90;;;;;;4997615;28;20176;-78
2022/02/25 10:29:56;;;;;;;3.37;0.93;;;5.70;99.90;;;;;;5009610;28;20590;-78
2022/02/25 10:32:55;;;;;;;7.07;1.37;;;5.80;99.90;;;;;;4996268;28;20172;-79
2022/02/25 10:35:27;;;;;;;5.53;1.50;;;5.90;99.90;;;;;;4998545;28;20195;-79
2022/02/25 10:38:04;;;;;;;2.17;0.90;;;6.00;99.90;;;;;;4997400;28;20233;-78
2022/02/25 10:40:39;;;;;;;9.13;4.63;;;6.10;99.90;;;;;;4997706;28;20275;-79
2022/02/25 10:43:11;;;;;;;4.00;1.53;;;6.00;99.90;;;;;;4996958;28;20717;-78
2022/02/25 10:45:41;;;;;;;4.87;1.80;;;5.60;99.90;;;;;;4996176;28;20825;-79
2022/02/25 10:48:16;;;;;;;3.90;1.57;;;5.60;99.90;;;;;;4998299;28;20179;-78
2022/02/25 10:51:04;;;;;;;2.73;1.27;;;5.50;99.90;;;;;;4997029;28;20299;-78
2022/02/25 10:53:47;;;;;;;4.67;1.40;;;5.40;99.90;;;;;;4994437;28;20167;-78
2022/02/25 10:56:16;;;;;;;3.53;1.63;;;5.30;99.90;;;;;;4998035;28;20236;-78
2022/02/25 10:58:49;;;;;;;5.33;1.53;;;5.20;99.90;;;;;;4995462;28;20231;-81
2022/02/25 11:01:18;;;;;;;5.70;1.43;;;5.10;99.90;;;;;;5009986;28;20203;-79
2022/02/25 11:03:58;;;;;;;8.93;2.10;;;4.90;99.90;;;;;;4995544;28;20212;-80
2022/02/25 11:06:24;;;;;;;5.33;1.40;;;4.80;99.90;;;;;;4996817;28;20187;-78
2022/02/25 11:08:53;;;;;;;3.47;1.37;;;4.70;99.90;;;;;;4996182;28;20246;-79
2022/02/25 11:11:21;;;;;;;4.37;1.20;;;4.70;99.90;;;;;;4996508;28;20243;-79
2022/02/25 11:13:48;;;;;;;2.40;1.03;;;4.70;99.90;;;;;;5011571;28;20192;-80
2022/02/25 11:16:16;;;;;;;4.50;1.13;;;4.60;99.90;;;;;;4995310;28;20559;-78
2022/02/25 11:18:46;;;;;;;8.47;1.60;;;4.60;99.90;;;;;;4996871;28;20602;-79
2022/02/25 11:21:13;;;;;;;6.40;1.40;;;4.40;99.90;;;;;;5010890;28;20200;-79
2022/02/25 11:23:43;;;;;;;5.30;1.73;;;4.40;99.90;;;;;;4998457;28;20184;-79
2022/02/25 11:26:12;;;;;;;5.87;1.50;;;4.40;99.90;;;;;;4996859;28;20262;-79
2022/02/25 11:28:40;;;;;;;9.00;1.77;;;4.40;99.90;;;;;;4998249;28;20662;-80
2022/02/25 11:31:21;;;;;;;4.90;1.47;;;4.40;99.90;;;;;;5012597;28;20265;-79
2022/02/25 11:33:54;;;;;;;9.07;1.70;;;4.40;99.90;;;;;;5002468;28;20793;-79
2022/02/25 11:36:46;;;;;;;3.90;1.17;;;4.40;99.90;;;;;;4997647;28;20207;-77
2022/02/25 11:39:27;;;;;;;6.50;1.30;;;4.50;99.90;;;;;;4995982;28;20721;-79
2022/02/25 11:42:00;;;;;;;5.13;1.67;;;4.70;99.90;;;;;;4991044;28;20206;-78
2022/02/25 11:44:26;;;;;;;4.70;2.70;;;4.80;99.90;;;;;;5009718;28;20195;-77
2022/02/25 11:46:54;;;;;;;5.43;1.67;;;4.90;99.90;;;;;;4996349;28;20287;-78
2022/02/25 11:49:27;;;;;;;7.73;1.90;;;5.00;99.90;;;;;;5004114;28;20194;-77
2022/02/25 11:51:53;;;;;;;4.47;1.43;;;5.30;99.90;;;;;;5013847;28;20206;-78
2022/02/25 11:54:21;;;;;;;4.30;1.70;;;5.30;99.90;;;;;;4998356;28;20175;-78
2022/02/25 11:56:56;;;;;;;6.93;1.93;;;5.40;99.90;;;;;;4997756;28;20211;-81
2022/02/25 11:59:31;;;;;;;5.90;1.70;;;5.50;99.90;;;;;;4999379;28;20214;-77
2022/02/25 12:02:04;;;;;;;6.00;1.40;;;5.50;99.90;;;;;;4996883;28;20289;-80
2022/02/25 12:04:32;;;;;;;5.23;1.40;;;5.70;99.90;;;;;;4999146;28;20176;-78
2022/02/25 12:07:10;;;;;;;6.47;2.03;;;6.00;99.90;;;;;;4999467;28;20203;-81
2022/02/25 12:09:50;;;;;;;5.60;1.60;;;6.10;99.90;;;;;;5000608;28;20218;-79
2022/02/25 12:12:28;;;;;;;2.43;1.50;;;6.30;99.90;;;;;;5001220;28;20178;-78
2022/02/25 12:15:12;;;;;;;1.77;1.20;;;6.60;99.90;;;;;;4998669;28;20307;-79
2022/02/25 12:17:58;;;;;;;3.80;1.57;;;6.80;99.90;;;;;;4999161;28;20180;-78
2022/02/25 12:20:27;;;;;;;4.80;1.83;;;6.80;99.90;;;;;;4998308;28;20725;-77
2022/02/25 12:23:02;;;;;;;4.00;1.80;;;6.80;99.90;;;;;;4998020;28;20270;-80
2022/02/25 12:25:39;;;;;;;4.93;1.50;;;6.60;99.90;;;;;;5000717;28;20212;-78
2022/02/25 12:28:30;;;;;;;4.87;1.50;;;6.30;99.90;;;;;;5006035;28;20293;-81
2022/02/25 12:31:10;;;;;;;5.17;1.70;;;5.90;99.90;;;;;;4999977;28;21173;-80
2022/02/25 12:33:41;;;;;;;5.90;1.83;;;5.70;99.90;;;;;;5001006;28;20224;-81
2022/02/25 12:36:12;;;;;;;2.43;1.53;;;5.60;99.90;;;;;;4999140;28;20176;-78
2022/02/25 12:38:42;;;;;;;3.73;1.70;;;5.60;99.90;;;;;;4996571;28;20176;-78
2022/02/25 12:41:18;;;;;;;7.83;2.70;;;5.50;99.90;;;;;;4998255;28;20229;-78
2022/02/25 12:43:48;;;;;;;5.17;2.07;;;5.60;99.90;;;;;;4999177;28;20279;-77
2022/02/25 12:46:16;;;;;;;6.63;2.27;;;5.60;99.90;;;;;;4998882;28;20190;-80
2022/02/25 12:48:42;;;;;;;6.77;2.97;;;5.80;99.90;;;;;;5000283;28;20633;-79
2022/02/25 12:51:07;;;;;;;5.43;2.13;;;5.80;99.90;;;;;;5000079;28;20208;-79
2022/02/25 12:53:48;;;;;;;4.67;1.90;;;5.90;99.90;;;;;;4998556;28;20194;-80
2022/02/25 12:56:16;;;;;;;3.00;1.80;;;6.00;99.90;;;;;;5000490;28;20226;-77
2022/02/25 12:58:42;;;;;;;5.47;1.90;;;5.90;99.90;;;;;;5015797;28;20186;-78
2022/02/25 13:01:15;;;;;;;6.03;2.10;;;6.00;99.90;;;;;;5016062;28;20309;-79
2022/02/25 13:03:40;;;;;;;3.90;1.83;;;5.90;99.90;;;;;;4998777;28;20270;-77
2022/02/25 13:06:06;;;;;;;4.00;2.00;;;6.00;99.90;;;;;;5014544;28;20185;-79